CYZG

Salluit Airport

Salluit, Quebec, Canada
METAR CYZG 182200Z 27012KT 4SM -SN BKN013 M15/M17 A2959 RMK ST7 SNW CVR/ONELOOSE/LAST STFD OBS/NEXT191300 UTC SLP045
Observed Flight Rules
Dec-18 @ 22:00 UTC (8 hours ago) Marginal Visual Flight Rules
Wind Visibility Clouds Conditions
270° at 12 knots 4 miles
  • Broken at 1,300' AGL
  • Light Snow
Temperatures Readings
Current -15°C / 5°F
Dewpoint -17°C / 1°F
Humidity 85%
Altimeter 29.59" Hg
Pressure 1004.5 hPa
Elevation 226
METAR CYZG 182200Z 27012KT 4SM -SN BKN013 M15/M17 A2959 RMK ST7 SNW CVR/ONELOOSE/LAST STFD OBS/NEXT191300 UTC SLP045
Observed Flight Rules
Dec-18 @ 22:00 UTC
(8 hours ago)
MVFR
Wind Visibility
270° at 12 knots 4 miles
Clouds
  • Broken at 1,300' AGL
Conditions
  • Light Snow
Temperature Dewpoint
-15°C / 5°F -17°C / 1°F
Humidity Altimeter Pressure
85% 29.59" Hg 1004.5 hPa